sensor_id;sensor_type;location;lat;lon;timestamp;pressure;altitude;pressure_sealevel;temperature;humidity
62152;BME280;48139;47.474;19.034;2024-03-08T00:02:43;100814.28;;;5.37;100.00
62152;BME280;48139;47.474;19.034;2024-03-08T00:05:46;100805.66;;;5.35;100.00
62152;BME280;48139;47.474;19.034;2024-03-08T00:08:49;100804.16;;;5.23;100.00
62152;BME280;48139;47.474;19.034;2024-03-08T00:11:53;100805.69;;;5.34;100.00
62152;BME280;48139;47.474;19.034;2024-03-08T00:14:56;100803.06;;;5.34;100.00
62152;BME280;48139;47.474;19.034;2024-03-08T00:17:59;100804.72;;;5.38;100.00
62152;BME280;48139;47.474;19.034;2024-03-08T00:21:02;100801.22;;;5.40;100.00
62152;BME280;48139;47.474;19.034;2024-03-08T00:24:05;100806.31;;;5.45;100.00
62152;BME280;48139;47.474;19.034;2024-03-08T00:27:09;100802.59;;;5.58;100.00
62152;BME280;48139;47.474;19.034;2024-03-08T00:30:12;100798.16;;;5.64;100.00
62152;BME280;48139;47.474;19.034;2024-03-08T00:33:17;100806.81;;;5.63;100.00
62152;BME280;48139;47.474;19.034;2024-03-08T00:36:20;100800.09;;;5.53;100.00
62152;BME280;48139;47.474;19.034;2024-03-08T00:39:23;100798.66;;;5.39;100.00
62152;BME280;48139;47.474;19.034;2024-03-08T00:42:26;100794.78;;;5.59;100.00
62152;BME280;48139;47.474;19.034;2024-03-08T00:45:28;100789.69;;;5.55;100.00
62152;BME280;48139;47.474;19.034;2024-03-08T00:48:31;100790.06;;;5.80;100.00
62152;BME280;48139;47.474;19.034;2024-03-08T00:51:34;100800.50;;;5.77;100.00
62152;BME280;48139;47.474;19.034;2024-03-08T00:54:37;100786.47;;;5.85;100.00
62152;BME280;48139;47.474;19.034;2024-03-08T00:57:40;100788.12;;;5.89;100.00
62152;BME280;48139;47.474;19.034;2024-03-08T01:00:43;100789.87;;;5.89;100.00
62152;BME280;48139;47.474;19.034;2024-03-08T01:03:47;100792.31;;;5.96;100.00
62152;BME280;48139;47.474;19.034;2024-03-08T01:06:51;100786.25;;;5.96;100.00
62152;BME280;48139;47.474;19.034;2024-03-08T01:09:53;100779.41;;;5.93;100.00
62152;BME280;48139;47.474;19.034;2024-03-08T01:12:57;100778.63;;;5.88;100.00
62152;BME280;48139;47.474;19.034;2024-03-08T01:16:02;100781.03;;;5.97;100.00
62152;BME280;48139;47.474;19.034;2024-03-08T01:19:05;100773.72;;;6.15;100.00
62152;BME280;48139;47.474;19.034;2024-03-08T01:22:08;100777.28;;;6.11;100.00
62152;BME280;48139;47.474;19.034;2024-03-08T01:25:12;100776.53;;;6.05;100.00
62152;BME280;48139;47.474;19.034;2024-03-08T01:28:14;100780.22;;;5.94;100.00
62152;BME280;48139;47.474;19.034;2024-03-08T01:31:17;100779.50;;;5.87;100.00
62152;BME280;48139;47.474;19.034;2024-03-08T01:34:20;100777.84;;;5.82;100.00
62152;BME280;48139;47.474;19.034;2024-03-08T01:37:23;100784.12;;;5.73;100.00
62152;BME280;48139;47.474;19.034;2024-03-08T01:40:26;100782.41;;;5.72;100.00
62152;BME280;48139;47.474;19.034;2024-03-08T01:43:29;100783.38;;;5.66;100.00
62152;BME280;48139;47.474;19.034;2024-03-08T01:46:32;100775.25;;;5.82;100.00
62152;BME280;48139;47.474;19.034;2024-03-08T01:49:35;100775.38;;;5.77;100.00
62152;BME280;48139;47.474;19.034;2024-03-08T01:52:38;100776.31;;;5.75;100.00
62152;BME280;48139;47.474;19.034;2024-03-08T01:55:42;100778.84;;;5.76;100.00
62152;BME280;48139;47.474;19.034;2024-03-08T01:58:45;100770.03;;;5.83;100.00
62152;BME280;48139;47.474;19.034;2024-03-08T02:01:50;100768.59;;;5.68;100.00
62152;BME280;48139;47.474;19.034;2024-03-08T02:04:54;100777.19;;;5.74;100.00
62152;BME280;48139;47.474;19.034;2024-03-08T02:07:57;100764.12;;;5.75;100.00
62152;BME280;48139;47.474;19.034;2024-03-08T02:11:00;100767.34;;;5.89;100.00
62152;BME280;48139;47.474;19.034;2024-03-08T02:14:04;100771.09;;;5.75;100.00
62152;BME280;48139;47.474;19.034;2024-03-08T02:17:09;100780.41;;;5.85;100.00
62152;BME280;48139;47.474;19.034;2024-03-08T02:20:14;100778.44;;;5.97;100.00
62152;BME280;48139;47.474;19.034;2024-03-08T02:23:20;100785.41;;;5.95;100.00
62152;BME280;48139;47.474;19.034;2024-03-08T02:26:23;100784.00;;;5.79;100.00
62152;BME280;48139;47.474;19.034;2024-03-08T02:29:26;100787.31;;;5.86;100.00
62152;BME280;48139;47.474;19.034;2024-03-08T02:32:28;100780.47;;;5.82;100.00
62152;BME280;48139;47.474;19.034;2024-03-08T02:35:33;100773.78;;;5.70;100.00
62152;BME280;48139;47.474;19.034;2024-03-08T02:38:35;100780.78;;;5.68;100.00
62152;BME280;48139;47.474;19.034;2024-03-08T02:41:38;100773.56;;;5.81;100.00
62152;BME280;48139;47.474;19.034;2024-03-08T02:44:44;100783.16;;;5.77;100.00
62152;BME280;48139;47.474;19.034;2024-03-08T02:47:47;100780.66;;;5.74;100.00
62152;BME280;48139;47.474;19.034;2024-03-08T02:50:52;100781.59;;;5.68;100.00
62152;BME280;48139;47.474;19.034;2024-03-08T02:53:55;100778.94;;;5.72;100.00
62152;BME280;48139;47.474;19.034;2024-03-08T02:56:58;100787.41;;;5.81;100.00
62152;BME280;48139;47.474;19.034;2024-03-08T03:00:01;100788.22;;;5.85;100.00
62152;BME280;48139;47.474;19.034;2024-03-08T03:03:03;100783.91;;;5.82;100.00
62152;BME280;48139;47.474;19.034;2024-03-08T03:06:07;100784.78;;;5.83;100.00
62152;BME280;48139;47.474;19.034;2024-03-08T03:09:09;100785.66;;;5.82;100.00
62152;BME280;48139;47.474;19.034;2024-03-08T03:12:13;100791.84;;;5.76;100.00
62152;BME280;48139;47.474;19.034;2024-03-08T03:15:17;100797.38;;;5.61;100.00
62152;BME280;48139;47.474;19.034;2024-03-08T03:18:20;100785.09;;;5.67;100.00
62152;BME280;48139;47.474;19.034;2024-03-08T03:21:28;100786.63;;;5.76;100.00
62152;BME280;48139;47.474;19.034;2024-03-08T03:24:34;100788.59;;;5.65;100.00
62152;BME280;48139;47.474;19.034;2024-03-08T03:27:38;100788.56;;;5.68;100.00
62152;BME280;48139;47.474;19.034;2024-03-08T03:30:44;100783.25;;;5.74;100.00
62152;BME280;48139;47.474;19.034;2024-03-08T03:33:48;100788.09;;;5.92;100.00
62152;BME280;48139;47.474;19.034;2024-03-08T03:36:54;100791.78;;;5.79;100.00
62152;BME280;48139;47.474;19.034;2024-03-08T03:39:58;100791.03;;;5.74;100.00
62152;BME280;48139;47.474;19.034;2024-03-08T03:43:01;100793.53;;;5.79;100.00
62152;BME280;48139;47.474;19.034;2024-03-08T03:46:06;100797.16;;;5.70;100.00
62152;BME280;48139;47.474;19.034;2024-03-08T03:49:10;100797.41;;;5.58;100.00
62152;BME280;48139;47.474;19.034;2024-03-08T03:52:12;100801.97;;;5.45;100.00
62152;BME280;48139;47.474;19.034;2024-03-08T03:55:15;100795.66;;;5.58;100.00
62152;BME280;48139;47.474;19.034;2024-03-08T03:58:18;100800.88;;;5.58;100.00
62152;BME280;48139;47.474;19.034;2024-03-08T04:01:25;100801.72;;;5.59;100.00
62152;BME280;48139;47.474;19.034;2024-03-08T04:04:28;100794.06;;;5.53;100.00
62152;BME280;48139;47.474;19.034;2024-03-08T04:07:31;100798.16;;;5.63;100.00
62152;BME280;48139;47.474;19.034;2024-03-08T04:10:34;100797.19;;;5.68;100.00
62152;BME280;48139;47.474;19.034;2024-03-08T04:13:36;100792.03;;;5.67;100.00
62152;BME280;48139;47.474;19.034;2024-03-08T04:16:39;100794.09;;;5.50;100.00
62152;BME280;48139;47.474;19.034;2024-03-08T04:19:42;100805.66;;;5.35;100.00
62152;BME280;48139;47.474;19.034;2024-03-08T04:22:45;100806.28;;;5.48;100.00
62152;BME280;48139;47.474;19.034;2024-03-08T04:26:43;100798.22;;;6.04;100.00
62152;BME280;48139;47.474;19.034;2024-03-08T04:29:46;100798.22;;;6.04;100.00
62152;BME280;48139;47.474;19.034;2024-03-08T04:32:49;100806.25;;;5.49;100.00
62152;BME280;48139;47.474;19.034;2024-03-08T04:35:53;100799.37;;;5.47;100.00
62152;BME280;48139;47.474;19.034;2024-03-08T04:38:55;100804.69;;;5.41;100.00
62152;BME280;48139;47.474;19.034;2024-03-08T04:42:02;100809.81;;;5.44;100.00
62152;BME280;48139;47.474;19.034;2024-03-08T04:45:09;100803.97;;;5.33;100.00
62152;BME280;48139;47.474;19.034;2024-03-08T04:48:14;100814.38;;;5.31;100.00
62152;BME280;48139;47.474;19.034;2024-03-08T04:51:17;100810.88;;;5.32;100.00
62152;BME280;48139;47.474;19.034;2024-03-08T04:54:19;100810.47;;;5.55;100.00
62152;BME280;48139;47.474;19.034;2024-03-08T04:57:22;100810.25;;;5.65;100.00
62152;BME280;48139;47.474;19.034;2024-03-08T05:00:25;100803.59;;;5.52;100.00
62152;BME280;48139;47.474;19.034;2024-03-08T05:03:28;100813.09;;;5.53;100.00
62152;BME280;48139;47.474;19.034;2024-03-08T05:06:31;100811.56;;;5.43;100.00
62152;BME280;48139;47.474;19.034;2024-03-08T05:09:34;100805.66;;;5.35;100.00
62152;BME280;48139;47.474;19.034;2024-03-08T05:12:38;100810.13;;;5.27;100.00
62152;BME280;48139;47.474;19.034;2024-03-08T05:15:41;100811.16;;;5.18;100.00
62152;BME280;48139;47.474;19.034;2024-03-08T05:18:44;100818.12;;;5.16;100.00
62152;BME280;48139;47.474;19.034;2024-03-08T05:21:47;100812.72;;;5.27;100.00
62152;BME280;48139;47.474;19.034;2024-03-08T05:24:51;100810.34;;;5.15;100.00
62152;BME280;48139;47.474;19.034;2024-03-08T05:27:53;100815.44;;;5.21;100.00
62152;BME280;48139;47.474;19.034;2024-03-08T05:30:56;100821.25;;;5.35;100.00
62152;BME280;48139;47.474;19.034;2024-03-08T05:33:59;100816.69;;;5.46;100.00
62152;BME280;48139;47.474;19.034;2024-03-08T05:37:02;100816.81;;;5.40;100.00
62152;BME280;48139;47.474;19.034;2024-03-08T05:40:08;100826.81;;;5.61;100.00
62152;BME280;48139;47.474;19.034;2024-03-08T05:43:20;100829.44;;;5.58;100.00
62152;BME280;48139;47.474;19.034;2024-03-08T05:46:23;100821.50;;;5.67;100.00
62152;BME280;48139;47.474;19.034;2024-03-08T05:49:26;100835.22;;;5.74;100.00
62152;BME280;48139;47.474;19.034;2024-03-08T05:52:28;100835.97;;;5.81;100.00
62152;BME280;48139;47.474;19.034;2024-03-08T05:55:32;100836.87;;;5.78;100.00
62152;BME280;48139;47.474;19.034;2024-03-08T05:58:39;100835.12;;;5.79;100.00
62152;BME280;48139;47.474;19.034;2024-03-08T06:01:42;100846.25;;;5.87;100.00
62152;BME280;48139;47.474;19.034;2024-03-08T06:04:46;100850.44;;;5.94;100.00
62152;BME280;48139;47.474;19.034;2024-03-08T06:07:49;100840.19;;;5.85;100.00
62152;BME280;48139;47.474;19.034;2024-03-08T06:10:55;100859.41;;;5.76;100.00
62152;BME280;48139;47.474;19.034;2024-03-08T06:13:58;100854.31;;;5.73;100.00
62152;BME280;48139;47.474;19.034;2024-03-08T06:17:03;100850.59;;;5.85;100.00
62152;BME280;48139;47.474;19.034;2024-03-08T06:20:09;100845.53;;;5.79;100.00
62152;BME280;48139;47.474;19.034;2024-03-08T06:23:16;100856.63;;;5.88;100.00
62152;BME280;48139;47.474;19.034;2024-03-08T06:26:22;100861.81;;;5.88;100.00
62152;BME280;48139;47.474;19.034;2024-03-08T06:29:25;100852.28;;;5.87;100.00
62152;BME280;48139;47.474;19.034;2024-03-08T06:32:28;100861.13;;;5.77;100.00
62152;BME280;48139;47.474;19.034;2024-03-08T06:35:32;100861.50;;;5.57;100.00
62152;BME280;48139;47.474;19.034;2024-03-08T06:38:34;100860.87;;;5.45;100.00
62152;BME280;48139;47.474;19.034;2024-03-08T06:41:37;100862.12;;;5.72;100.00
62152;BME280;48139;47.474;19.034;2024-03-08T06:44:40;100866.84;;;5.50;100.00
62152;BME280;48139;47.474;19.034;2024-03-08T06:47:51;100862.56;;;5.49;100.00
62152;BME280;48139;47.474;19.034;2024-03-08T06:50:55;100873.88;;;5.45;100.00
62152;BME280;48139;47.474;19.034;2024-03-08T06:53:59;100870.31;;;5.50;100.00
62152;BME280;48139;47.474;19.034;2024-03-08T06:57:05;100864.84;;;5.64;100.00
62152;BME280;48139;47.474;19.034;2024-03-08T07:00:08;100868.28;;;5.67;100.00
62152;BME280;48139;47.474;19.034;2024-03-08T07:03:18;100873.53;;;5.63;100.00
62152;BME280;48139;47.474;19.034;2024-03-08T07:06:27;100874.63;;;5.51;100.00
62152;BME280;48139;47.474;19.034;2024-03-08T07:09:30;100874.34;;;5.66;100.00
62152;BME280;48139;47.474;19.034;2024-03-08T07:12:33;100871.69;;;5.69;100.00
62152;BME280;48139;47.474;19.034;2024-03-08T07:15:36;100871.84;;;5.62;100.00
62152;BME280;48139;47.474;19.034;2024-03-08T07:18:39;100876.09;;;5.66;100.00
62152;BME280;48139;47.474;19.034;2024-03-08T07:21:46;100879.66;;;5.62;100.00
62152;BME280;48139;47.474;19.034;2024-03-08T07:24:50;100878.72;;;5.64;100.00
62152;BME280;48139;47.474;19.034;2024-03-08T07:28:12;100877.09;;;5.57;100.00
62152;BME280;48139;47.474;19.034;2024-03-08T07:31:15;100882.94;;;5.70;100.00
62152;BME280;48139;47.474;19.034;2024-03-08T07:34:29;100887.81;;;5.88;100.00
62152;BME280;48139;47.474;19.034;2024-03-08T07:37:34;100886.75;;;5.98;100.00
62152;BME280;48139;47.474;19.034;2024-03-08T07:40:38;100886.72;;;6.00;100.00
62152;BME280;48139;47.474;19.034;2024-03-08T07:43:43;100889.88;;;6.16;100.00
62152;BME280;48139;47.474;19.034;2024-03-08T07:46:46;100886.97;;;6.31;100.00
62152;BME280;48139;47.474;19.034;2024-03-08T07:49:49;100885.91;;;6.38;100.00
62152;BME280;48139;47.474;19.034;2024-03-08T07:52:51;100887.94;;;6.25;100.00
62152;BME280;48139;47.474;19.034;2024-03-08T07:55:54;100886.62;;;6.46;100.00
62152;BME280;48139;47.474;19.034;2024-03-08T07:58:57;100886.25;;;6.24;100.00
62152;BME280;48139;47.474;19.034;2024-03-08T08:02:00;100894.50;;;6.01;100.00
62152;BME280;48139;47.474;19.034;2024-03-08T08:05:03;100895.47;;;5.96;100.00
62152;BME280;48139;47.474;19.034;2024-03-08T08:08:10;100884.06;;;6.03;100.00
62152;BME280;48139;47.474;19.034;2024-03-08T08:11:14;100894.97;;;6.20;100.00
62152;BME280;48139;47.474;19.034;2024-03-08T08:14:18;100885.31;;;6.25;100.00
62152;BME280;48139;47.474;19.034;2024-03-08T08:17:23;100890.47;;;6.28;100.00
62152;BME280;48139;47.474;19.034;2024-03-08T08:20:26;100893.84;;;6.33;100.00
62152;BME280;48139;47.474;19.034;2024-03-08T08:23:30;100886.78;;;6.38;100.00
62152;BME280;48139;47.474;19.034;2024-03-08T08:26:33;100878.84;;;6.44;100.00
62152;BME280;48139;47.474;19.034;2024-03-08T08:29:40;100890.41;;;6.31;100.00
62152;BME280;48139;47.474;19.034;2024-03-08T08:32:44;100891.91;;;6.43;100.00
62152;BME280;48139;47.474;19.034;2024-03-08T08:35:46;100894.97;;;6.20;100.00
62152;BME280;48139;47.474;19.034;2024-03-08T08:38:50;100889.97;;;6.11;100.00
62152;BME280;48139;47.474;19.034;2024-03-08T08:41:53;100897.91;;;6.05;100.00
62152;BME280;48139;47.474;19.034;2024-03-08T08:49:05;100885.16;;;6.34;100.00
62152;BME280;48139;47.474;19.034;2024-03-08T08:52:40;100886.50;;;6.51;100.00
62152;BME280;48139;47.474;19.034;2024-03-08T08:56:00;100886.12;;;6.30;100.00
62152;BME280;48139;47.474;19.034;2024-03-08T08:59:05;100878.88;;;6.03;100.00
62152;BME280;48139;47.474;19.034;2024-03-08T09:02:08;100885.22;;;5.87;100.00
62152;BME280;48139;47.474;19.034;2024-03-08T09:05:18;100893.00;;;5.88;100.00
62152;BME280;48139;47.474;19.034;2024-03-08T09:08:28;100893.34;;;6.16;100.00
62152;BME280;48139;47.474;19.034;2024-03-08T09:11:37;100892.09;;;6.34;100.00
62152;BME280;48139;47.474;19.034;2024-03-08T09:14:44;100891.78;;;6.49;100.00
62152;BME280;48139;47.474;19.034;2024-03-08T09:17:47;100886.38;;;6.57;100.00
62152;BME280;48139;47.474;19.034;2024-03-08T09:20:50;100876.81;;;6.57;100.00
62152;BME280;48139;47.474;19.034;2024-03-08T09:24:01;100887.34;;;6.91;100.00
62152;BME280;48139;47.474;19.034;2024-03-08T09:27:04;100877.37;;;7.07;100.00
62152;BME280;48139;47.474;19.034;2024-03-08T09:30:07;100881.31;;;7.24;100.00
62152;BME280;48139;47.474;19.034;2024-03-08T09:33:10;100885.59;;;7.25;100.00
62152;BME280;48139;47.474;19.034;2024-03-08T09:36:14;100891.97;;;7.14;100.00
62152;BME280;48139;47.474;19.034;2024-03-08T09:39:17;100879.69;;;7.19;100.00
62152;BME280;48139;47.474;19.034;2024-03-08T09:42:20;100883.06;;;7.24;100.00
62152;BME280;48139;47.474;19.034;2024-03-08T09:45:23;100887.34;;;7.25;100.00
62152;BME280;48139;47.474;19.034;2024-03-08T09:48:28;100882.13;;;7.26;100.00
62152;BME280;48139;47.474;19.034;2024-03-08T09:51:33;100880.03;;;7.41;100.00
62152;BME280;48139;47.474;19.034;2024-03-08T09:54:37;100889.66;;;7.37;100.00
62152;BME280;48139;47.474;19.034;2024-03-08T09:57:41;100875.84;;;7.34;100.00
62152;BME280;48139;47.474;19.034;2024-03-08T10:00:56;100876.78;;;7.31;100.00
62152;BME280;48139;47.474;19.034;2024-03-08T10:04:00;100877.47;;;7.38;100.00
62152;BME280;48139;47.474;19.034;2024-03-08T10:07:04;100879.66;;;7.54;100.00
62152;BME280;48139;47.474;19.034;2024-03-08T10:10:09;100884.00;;;7.55;100.00
62152;BME280;48139;47.474;19.034;2024-03-08T10:13:15;100886.50;;;7.91;100.00
62152;BME280;48139;47.474;19.034;2024-03-08T10:16:19;100891.22;;;8.07;100.00
62152;BME280;48139;47.474;19.034;2024-03-08T10:19:22;100880.31;;;7.93;100.00
62152;BME280;48139;47.474;19.034;2024-03-08T10:22:30;100881.28;;;8.20;100.00
62152;BME280;48139;47.474;19.034;2024-03-08T10:25:34;100886.06;;;8.37;100.00
62152;BME280;48139;47.474;19.034;2024-03-08T10:28:37;100881.56;;;8.42;100.00
62152;BME280;48139;47.474;19.034;2024-03-08T10:31:43;100878.19;;;8.38;100.00
62152;BME280;48139;47.474;19.034;2024-03-08T10:34:46;100881.47;;;8.45;100.00
62152;BME280;48139;47.474;19.034;2024-03-08T10:37:50;100884.69;;;8.24;100.00
62152;BME280;48139;47.474;19.034;2024-03-08T10:41:01;100878.63;;;8.23;100.00
62152;BME280;48139;47.474;19.034;2024-03-08T10:44:17;100881.09;;;8.28;100.00
62152;BME280;48139;47.474;19.034;2024-03-08T10:47:26;100878.84;;;8.45;100.00
62152;BME280;48139;47.474;19.034;2024-03-08T10:50:33;100877.31;;;8.38;100.00
62152;BME280;48139;47.474;19.034;2024-03-08T10:53:38;100879.22;;;8.33;100.00
62152;BME280;48139;47.474;19.034;2024-03-08T10:56:47;100871.37;;;8.02;100.00
62152;BME280;48139;47.474;19.034;2024-03-08T10:59:52;100876.19;;;7.86;100.00
62152;BME280;48139;47.474;19.034;2024-03-08T11:03:04;100869.69;;;7.68;100.00
62152;BME280;48139;47.474;19.034;2024-03-08T11:06:07;100870.84;;;7.58;100.00
62152;BME280;48139;47.474;19.034;2024-03-08T11:09:30;100866.00;;;7.45;100.00
62152;BME280;48139;47.474;19.034;2024-03-08T11:12:38;100875.81;;;7.35;100.00
62152;BME280;48139;47.474;19.034;2024-03-08T11:15:42;100875.25;;;7.24;100.00
62152;BME280;48139;47.474;19.034;2024-03-08T11:18:47;100871.63;;;7.29;100.00
62152;BME280;48139;47.474;19.034;2024-03-08T11:22:00;100875.09;;;7.62;100.00
62152;BME280;48139;47.474;19.034;2024-03-08T11:25:09;100862.03;;;7.95;100.00
62152;BME280;48139;47.474;19.034;2024-03-08T11:28:18;100865.94;;;8.11;100.00
62152;BME280;48139;47.474;19.034;2024-03-08T11:31:23;100859.19;;;8.02;100.00
62152;BME280;48139;47.474;19.034;2024-03-08T11:34:27;100858.16;;;8.08;100.00
62152;BME280;48139;47.474;19.034;2024-03-08T11:37:30;100850.94;;;8.18;100.00
62152;BME280;48139;47.474;19.034;2024-03-08T11:40:39;100855.69;;;8.34;100.00
62152;BME280;48139;47.474;19.034;2024-03-08T11:43:42;100853.75;;;8.41;100.00
62152;BME280;48139;47.474;19.034;2024-03-08T11:46:45;100850.19;;;8.43;100.00
62152;BME280;48139;47.474;19.034;2024-03-08T11:49:51;100850.13;;;8.45;100.00
62152;BME280;48139;47.474;19.034;2024-03-08T11:53:03;100843.75;;;8.55;100.00
62152;BME280;48139;47.474;19.034;2024-03-08T11:59:13;100839.75;;;8.71;100.00
62152;BME280;48139;47.474;19.034;2024-03-08T12:02:16;100834.13;;;9.10;100.00
62152;BME280;48139;47.474;19.034;2024-03-08T12:05:21;100831.75;;;9.28;100.00
62152;BME280;48139;47.474;19.034;2024-03-08T12:08:24;100828.75;;;9.39;100.00
62152;BME280;48139;47.474;19.034;2024-03-08T12:11:27;100824.16;;;9.21;100.00
62152;BME280;48139;47.474;19.034;2024-03-08T12:14:34;100819.56;;;9.27;100.00
62152;BME280;48139;47.474;19.034;2024-03-08T12:17:38;100822.63;;;9.15;100.00
62152;BME280;48139;47.474;19.034;2024-03-08T12:20:45;100818.41;;;9.11;100.00
62152;BME280;48139;47.474;19.034;2024-03-08T12:24:03;100827.03;;;9.13;100.00
62152;BME280;48139;47.474;19.034;2024-03-08T12:27:19;100815.38;;;8.97;100.00
62152;BME280;48139;47.474;19.034;2024-03-08T12:30:25;100818.81;;;8.73;100.00
62152;BME280;48139;47.474;19.034;2024-03-08T12:33:31;100816.75;;;8.82;100.00
62152;BME280;48139;47.474;19.034;2024-03-08T12:36:34;100818.38;;;8.86;100.00
62152;BME280;48139;47.474;19.034;2024-03-08T12:39:40;100817.22;;;8.94;100.00
62152;BME280;48139;47.474;19.034;2024-03-08T12:42:48;100813.63;;;8.71;100.00
62152;BME280;48139;47.474;19.034;2024-03-08T12:45:51;100814.84;;;8.61;100.00
62152;BME280;48139;47.474;19.034;2024-03-08T12:48:54;100812.59;;;8.49;100.00
62152;BME280;48139;47.474;19.034;2024-03-08T12:51:57;100815.94;;;8.54;100.00
62152;BME280;48139;47.474;19.034;2024-03-08T12:55:00;100811.62;;;8.52;100.00
62152;BME280;48139;47.474;19.034;2024-03-08T12:58:09;100801.38;;;8.45;100.00
62152;BME280;48139;47.474;19.034;2024-03-08T13:01:12;100802.72;;;8.31;100.00
62152;BME280;48139;47.474;19.034;2024-03-08T13:04:16;100805.91;;;8.11;100.00
62152;BME280;48139;47.474;19.034;2024-03-08T13:07:19;100808.34;;;8.17;100.00
62152;BME280;48139;47.474;19.034;2024-03-08T13:10:21;100797.81;;;8.19;100.00
62152;BME280;48139;47.474;19.034;2024-03-08T13:13:25;100797.81;;;8.19;100.00
62152;BME280;48139;47.474;19.034;2024-03-08T13:16:28;100798.75;;;8.18;100.00
62152;BME280;48139;47.474;19.034;2024-03-08T13:19:32;100794.44;;;8.17;100.00
62152;BME280;48139;47.474;19.034;2024-03-08T13:22:36;100791.72;;;8.20;100.00
62152;BME280;48139;47.474;19.034;2024-03-08T13:25:39;100798.34;;;8.31;100.00
62152;BME280;48139;47.474;19.034;2024-03-08T13:28:45;100793.47;;;8.19;100.00
62152;BME280;48139;47.474;19.034;2024-03-08T13:31:48;100789.50;;;8.06;100.00
62152;BME280;48139;47.474;19.034;2024-03-08T13:34:54;100781.16;;;8.24;100.00
62152;BME280;48139;47.474;19.034;2024-03-08T13:37:58;100774.72;;;8.36;100.00
62152;BME280;48139;47.474;19.034;2024-03-08T13:41:00;100779.22;;;8.31;100.00
62152;BME280;48139;47.474;19.034;2024-03-08T13:44:03;100783.81;;;8.23;100.00
62152;BME280;48139;47.474;19.034;2024-03-08T13:47:07;100782.94;;;8.22;100.00
62152;BME280;48139;47.474;19.034;2024-03-08T13:50:11;100779.44;;;8.23;100.00
62152;BME280;48139;47.474;19.034;2024-03-08T13:53:23;100775.53;;;8.08;100.00
62152;BME280;48139;47.474;19.034;2024-03-08T13:56:27;100769.09;;;7.92;100.00
62152;BME280;48139;47.474;19.034;2024-03-08T13:59:32;100778.88;;;7.84;100.00
62152;BME280;48139;47.474;19.034;2024-03-08T14:02:35;100775.56;;;7.79;100.00
62152;BME280;48139;47.474;19.034;2024-03-08T14:05:39;100777.62;;;7.97;100.00
62152;BME280;48139;47.474;19.034;2024-03-08T14:08:42;100775.34;;;8.15;100.00
62152;BME280;48139;47.474;19.034;2024-03-08T14:11:44;100776.72;;;7.98;100.00
62152;BME280;48139;47.474;19.034;2024-03-08T14:14:47;100770.00;;;7.90;100.00
62152;BME280;48139;47.474;19.034;2024-03-08T14:17:54;100764.44;;;8.02;100.00
62152;BME280;48139;47.474;19.034;2024-03-08T14:20:57;100777.28;;;8.08;100.00
62152;BME280;48139;47.474;19.034;2024-03-08T14:24:01;100771.12;;;8.10;100.00
62152;BME280;48139;47.474;19.034;2024-03-08T14:27:04;100771.81;;;8.17;100.00
62152;BME280;48139;47.474;19.034;2024-03-08T14:30:12;100767.66;;;8.10;100.00
62152;BME280;48139;47.474;19.034;2024-03-08T14:33:15;100763.69;;;7.98;100.00
62152;BME280;48139;47.474;19.034;2024-03-08T14:36:19;100765.44;;;7.98;100.00
62152;BME280;48139;47.474;19.034;2024-03-08T14:39:28;100762.91;;;7.95;100.00
62152;BME280;48139;47.474;19.034;2024-03-08T14:42:31;100762.84;;;7.96;100.00
62152;BME280;48139;47.474;19.034;2024-03-08T14:45:34;100761.06;;;7.98;100.00
62152;BME280;48139;47.474;19.034;2024-03-08T14:48:37;100762.59;;;8.05;100.00
62152;BME280;48139;47.474;19.034;2024-03-08T14:51:40;100763.91;;;7.91;100.00
62152;BME280;48139;47.474;19.034;2024-03-08T14:54:43;100762.00;;;7.96;100.00
62152;BME280;48139;47.474;19.034;2024-03-08T14:57:45;100755.09;;;7.93;100.00
62152;BME280;48139;47.474;19.034;2024-03-08T15:00:48;100754.34;;;7.90;100.00
62152;BME280;48139;47.474;19.034;2024-03-08T15:03:57;100757.06;;;7.87;100.00
62152;BME280;48139;47.474;19.034;2024-03-08T15:07:04;100757.16;;;7.84;100.00
62152;BME280;48139;47.474;19.034;2024-03-08T15:10:08;100754.94;;;7.70;100.00
62152;BME280;48139;47.474;19.034;2024-03-08T15:13:17;100748.84;;;7.71;100.00
62152;BME280;48139;47.474;19.034;2024-03-08T15:16:24;100746.03;;;7.77;100.00
62152;BME280;48139;47.474;19.034;2024-03-08T15:19:28;100755.84;;;7.69;100.00
62152;BME280;48139;47.474;19.034;2024-03-08T15:22:31;100753.28;;;7.67;100.00
62152;BME280;48139;47.474;19.034;2024-03-08T15:25:34;100745.59;;;7.63;100.00
62152;BME280;48139;47.474;19.034;2024-03-08T15:28:38;100748.13;;;7.66;100.00
62152;BME280;48139;47.474;19.034;2024-03-08T15:31:42;100754.16;;;7.68;100.00
62152;BME280;48139;47.474;19.034;2024-03-08T15:34:46;100748.28;;;7.60;100.00
62152;BME280;48139;47.474;19.034;2024-03-08T15:37:49;100752.47;;;7.65;100.00
62152;BME280;48139;47.474;19.034;2024-03-08T15:40:51;100753.91;;;7.46;100.00
62152;BME280;48139;47.474;19.034;2024-03-08T15:43:55;100753.06;;;7.44;100.00
62152;BME280;48139;47.474;19.034;2024-03-08T15:46:58;100756.34;;;7.51;100.00
62152;BME280;48139;47.474;19.034;2024-03-08T15:50:01;100751.97;;;7.53;100.00
62152;BME280;48139;47.474;19.034;2024-03-08T15:53:06;100751.03;;;7.55;100.00
62152;BME280;48139;47.474;19.034;2024-03-08T15:56:09;100758.59;;;7.64;100.00
62152;BME280;48139;47.474;19.034;2024-03-08T15:59:12;100753.22;;;7.69;100.00
62152;BME280;48139;47.474;19.034;2024-03-08T16:02:15;100756.63;;;7.73;100.00